Time;durP1;ratioP1;P1;durP2;ratioP2;P2;SDS_P1;SDS_P2;PMS_P1;PMS_P2;Temp;Humidity;BMP_temperature;BMP_pressure;BME280_temperature;BME280_humidity;BME280_pressure;Samples;Min_cycle;Max_cycle;Signal;HPM_P1;HPM_P2
2023/11/26 00:01:07;;;;;;;13.70;5.50;;;;;;;1.58;69.84;99249.77;107570;1252;107215;-59
2023/11/26 00:03:56;;;;;;;12.30;6.00;;;;;;;1.55;69.92;99255.06;107558;1254;97901;-59
2023/11/26 00:06:24;;;;;;;13.90;5.10;;;;;;;1.55;69.95;99253.88;107673;1251;97735;-60
2023/11/26 00:08:52;;;;;;;13.60;6.40;;;;;;;1.56;70.10;99250.63;107626;1251;111761;-60
2023/11/26 00:11:21;;;;;;;16.50;6.20;;;;;;;1.58;70.21;99255.42;107608;1251;109355;-60
2023/11/26 00:13:49;;;;;;;14.90;6.00;;;;;;;1.60;69.78;99255.66;107639;1251;106606;-61
2023/11/26 00:16:18;;;;;;;14.80;5.70;;;;;;;1.59;69.73;99258.20;107591;1251;97865;-61
2023/11/26 00:18:46;;;;;;;15.00;5.90;;;;;;;1.61;70.03;99253.12;107655;1253;98609;-59
2023/11/26 00:21:14;;;;;;;14.30;5.20;;;;;;;1.63;70.15;99250.26;107610;1252;111945;-60
2023/11/26 00:23:43;;;;;;;9.20;5.60;;;;;;;1.67;70.27;99253.52;107674;1251;109286;-60
2023/11/26 00:26:11;;;;;;;10.30;5.20;;;;;;;1.68;70.38;99257.45;107584;1250;108558;-60
2023/11/26 00:28:40;;;;;;;17.00;6.00;;;;;;;1.69;70.14;99257.96;107603;1251;97889;-60
2023/11/26 00:31:08;;;;;;;12.60;6.00;;;;;;;1.66;70.24;99257.45;107577;1251;98397;-61
2023/11/26 00:33:36;;;;;;;12.90;5.30;;;;;;;1.66;70.65;99250.36;107631;1252;111843;-60
2023/11/26 00:36:06;;;;;;;14.80;5.70;;;;;;;1.67;70.64;99240.73;107604;1254;109044;-61
2023/11/26 00:38:34;;;;;;;15.70;6.00;;;;;;;1.69;70.51;99233.92;107630;1251;108689;-60
2023/11/26 00:41:02;;;;;;;11.70;5.10;;;;;;;1.67;70.24;99234.95;107569;1251;97832;-60
2023/11/26 00:43:30;;;;;;;15.60;5.90;;;;;;;1.63;70.49;99232.26;107521;1252;98396;-60
2023/11/26 00:46:00;;;;;;;12.30;5.80;;;;;;;1.64;70.66;99230.56;107615;1255;110761;-61
2023/11/26 00:48:28;;;;;;;13.30;6.20;;;;;;;1.64;70.85;99226.33;107592;1255;109249;-60
2023/11/26 00:50:57;;;;;;;12.80;6.00;;;;;;;1.68;71.03;99227.30;107598;1253;108493;-59
2023/11/26 00:53:26;;;;;;;11.00;6.00;;;;;;;1.68;71.10;99227.61;107467;1253;97855;-60
2023/11/26 00:55:54;;;;;;;17.00;6.60;;;;;;;1.65;71.12;99231.02;107583;1251;97858;-61
2023/11/26 00:58:22;;;;;;;17.30;6.60;;;;;;;1.63;71.38;99231.51;107650;1253;111486;-60
2023/11/26 01:00:52;;;;;;;22.00;6.90;;;;;;;1.61;71.66;99233.45;107564;1253;109187;-60
2023/11/26 01:03:20;;;;;;;18.90;7.20;;;;;;;1.59;71.71;99231.89;107620;1253;107321;-59
2023/11/26 01:05:48;;;;;;;13.70;6.00;;;;;;;1.54;71.99;99227.41;107601;1252;97992;-60
2023/11/26 01:08:17;;;;;;;15.80;6.80;;;;;;;1.52;71.95;99231.63;107614;1251;97849;-60
2023/11/26 01:10:45;;;;;;;15.40;6.90;;;;;;;1.52;72.17;99233.42;107637;1253;111772;-60
2023/11/26 01:13:14;;;;;;;18.70;7.50;;;;;;;1.53;72.26;99241.08;107627;1251;109689;-60
2023/11/26 01:15:43;;;;;;;19.80;7.10;;;;;;;1.55;72.40;99241.48;107567;1254;108749;-59
2023/11/26 01:18:11;;;;;;;16.80;7.60;;;;;;;1.56;72.51;99243.89;107634;1251;97991;-59
2023/11/26 01:20:40;;;;;;;19.70;7.40;;;;;;;1.55;72.53;99244.66;107585;1254;98330;-59
2023/11/26 01:23:09;;;;;;;22.00;7.90;;;;;;;1.52;72.78;99241.05;107583;1251;111060;-60
2023/11/26 01:25:39;;;;;;;21.20;9.50;;;;;;;1.47;72.80;99242.41;107666;1251;109183;-59
2023/11/26 01:28:07;;;;;;;18.60;8.20;;;;;;;1.43;73.11;99240.63;107569;1253;106846;-60
2023/11/26 01:30:35;;;;;;;23.80;9.00;;;;;;;1.42;73.42;99237.56;107642;1251;97827;-60
2023/11/26 01:33:04;;;;;;;20.50;8.30;;;;;;;1.39;73.59;99223.08;107638;1252;97800;-60
2023/11/26 01:35:32;;;;;;;21.70;8.40;;;;;;;1.38;73.62;99214.30;107641;1253;111192;-61
2023/11/26 01:38:01;;;;;;;13.40;8.00;;;;;;;1.35;73.77;99205.51;107623;1253;109074;-60
2023/11/26 01:40:39;;;;;;;21.80;9.30;;;;;;;1.32;74.00;99200.80;107416;1252;109698;-60
2023/11/26 01:43:07;;;;;;;17.30;9.60;;;;;;;1.29;74.14;99204.94;107606;1253;97832;-60
2023/11/26 01:45:36;;;;;;;23.60;9.30;;;;;;;1.27;74.27;99214.63;107616;1253;97922;-61
2023/11/26 01:48:05;;;;;;;19.80;8.20;;;;;;;1.25;74.43;99216.16;107626;1253;111249;-61
2023/11/26 01:50:33;;;;;;;16.10;9.00;;;;;;;1.23;74.60;99208.41;107618;1253;108805;-60
2023/11/26 01:53:02;;;;;;;21.10;8.90;;;;;;;1.20;74.64;99204.34;107455;1253;108188;-59
2023/11/26 01:55:30;;;;;;;18.70;9.20;;;;;;;1.18;74.88;99214.23;107616;1251;98254;-60
2023/11/26 01:57:59;;;;;;;20.30;9.20;;;;;;;1.16;75.13;99223.55;107590;1251;97862;-59
2023/11/26 02:00:27;;;;;;;27.40;11.20;;;;;;;1.14;75.26;99221.22;107568;1251;111977;-59
2023/11/26 02:02:56;;;;;;;23.40;10.20;;;;;;;1.14;75.43;99221.08;107588;1256;109961;-59
2023/11/26 02:05:24;;;;;;;20.90;8.20;;;;;;;1.16;75.18;99222.52;107532;1251;107924;-60
2023/11/26 02:07:52;;;;;;;18.80;10.50;;;;;;;1.17;75.25;99224.87;107618;1252;97818;-60
2023/11/26 02:10:23;;;;;;;20.80;9.30;;;;;;;1.15;75.40;99226.67;107501;1253;97743;-58
2023/11/26 02:13:06;;;;;;;21.50;9.90;;;;;;;1.16;75.44;99222.90;107637;1253;111578;-60
2023/11/26 02:15:36;;;;;;;26.50;10.30;;;;;;;1.16;75.52;99215.08;107508;1253;108990;-60
2023/11/26 02:18:05;;;;;;;25.60;10.80;;;;;;;1.16;75.30;99221.65;107608;1255;107549;-60
2023/11/26 02:20:34;;;;;;;23.50;10.40;;;;;;;1.16;75.46;99219.34;107650;1251;97826;-61
2023/11/26 02:23:03;;;;;;;21.80;9.90;;;;;;;1.17;75.34;99215.87;107459;1257;98068;-60
2023/11/26 02:25:32;;;;;;;19.20;9.90;;;;;;;1.18;75.24;99207.30;107638;1251;112034;-59
2023/11/26 02:28:00;;;;;;;18.80;9.40;;;;;;;1.19;75.32;99193.66;107528;1251;110341;-60
2023/11/26 02:30:29;;;;;;;21.10;8.90;;;;;;;1.18;75.37;99185.61;107690;1251;107473;-60
2023/11/26 02:32:58;;;;;;;22.10;10.40;;;;;;;1.20;75.37;99180.00;107443;1257;97826;-60
2023/11/26 02:35:27;;;;;;;19.40;9.50;;;;;;;1.17;75.08;99180.38;107673;1251;97708;-60
2023/11/26 02:37:56;;;;;;;19.30;9.30;;;;;;;1.19;75.25;99181.86;107641;1251;110464;-61
2023/11/26 02:40:25;;;;;;;18.30;10.00;;;;;;;1.20;75.23;99182.11;107552;1253;109424;-61
2023/11/26 02:42:56;;;;;;;15.80;7.50;;;;;;;1.19;75.08;99183.77;107603;1250;107657;-59
2023/11/26 02:45:25;;;;;;;22.30;9.90;;;;;;;1.19;74.67;99189.27;107637;1253;97959;-60
2023/11/26 02:47:53;;;;;;;19.00;10.20;;;;;;;1.16;74.76;99181.86;107574;1253;97863;-60
2023/11/26 02:50:23;;;;;;;15.70;9.10;;;;;;;1.17;74.87;99181.29;107617;1251;111097;-60
2023/11/26 02:52:51;;;;;;;22.30;8.80;;;;;;;1.18;74.71;99179.77;107562;1251;108681;-61
2023/11/26 02:55:20;;;;;;;19.10;8.60;;;;;;;1.19;74.64;99184.11;107528;1252;107839;-60
2023/11/26 02:57:48;;;;;;;15.90;9.20;;;;;;;1.19;74.38;99188.91;107562;1255;97935;-58
2023/11/26 03:00:19;;;;;;;21.20;7.90;;;;;;;1.20;74.36;99173.95;107606;1253;97870;-60
2023/11/26 03:02:48;;;;;;;16.20;9.60;;;;;;;1.22;73.63;99166.98;107562;1251;110123;-60
2023/11/26 03:05:21;;;;;;;19.70;8.80;;;;;;;1.21;73.67;99169.00;107583;1251;109962;-59
2023/11/26 03:08:07;;;;;;;19.80;7.70;;;;;;;1.22;73.74;99169.23;107562;1251;108072;-60
2023/11/26 03:13:23;;;;;;;14.90;8.40;;;;;;;1.20;73.08;99179.45;107632;1251;98399;-59
2023/11/26 03:15:53;;;;;;;14.70;6.90;;;;;;;1.19;73.06;99181.83;107631;1251;111305;-60
2023/11/26 03:18:22;;;;;;;14.10;9.00;;;;;;;1.17;72.73;99174.23;107619;1251;108675;-61
2023/11/26 03:20:52;;;;;;;17.30;8.50;;;;;;;1.13;72.63;99165.14;107453;1253;107726;-60
2023/11/26 03:23:21;;;;;;;11.80;7.60;;;;;;;1.11;72.64;99159.98;107591;1253;97833;-61
2023/11/26 03:25:51;;;;;;;17.20;8.20;;;;;;;1.11;72.69;99156.16;107650;1250;98405;-60
2023/11/26 03:28:20;;;;;;;9.30;6.00;;;;;;;1.11;72.94;99139.16;107683;1251;112252;-58
2023/11/26 03:30:52;;;;;;;12.80;6.90;;;;;;;1.10;72.28;99134.14;107556;1253;109785;-59
2023/11/26 03:33:20;;;;;;;10.60;6.90;;;;;;;1.08;72.26;99131.27;107628;1252;107322;-60
2023/11/26 03:35:50;;;;;;;8.80;5.90;;;;;;;1.07;71.92;99124.83;107581;1254;97836;-60
2023/11/26 03:38:18;;;;;;;10.70;6.60;;;;;;;1.04;71.80;99125.22;107577;1251;97874;-60
2023/11/26 03:40:47;;;;;;;12.70;7.40;;;;;;;1.00;71.94;99130.60;107618;1252;111137;-60
2023/11/26 03:43:15;;;;;;;10.20;6.60;;;;;;;0.98;71.75;99130.07;107637;1252;109376;-60
2023/11/26 03:45:44;;;;;;;13.10;6.90;;;;;;;0.97;71.80;99124.50;107628;1254;107093;-60
2023/11/26 03:48:13;;;;;;;12.10;7.20;;;;;;;0.97;71.66;99114.85;107567;1251;97942;-60
2023/11/26 03:50:43;;;;;;;17.50;7.60;;;;;;;0.97;71.65;99106.33;107572;1252;98540;-59
2023/11/26 03:53:11;;;;;;;14.10;6.40;;;;;;;0.99;71.43;99105.13;107563;1252;111338;-61
2023/11/26 03:55:39;;;;;;;10.40;5.90;;;;;;;0.96;71.36;99112.95;107633;1252;108363;-59
2023/11/26 03:58:08;;;;;;;13.40;6.30;;;;;;;0.93;71.36;99113.64;107594;1252;108973;-58
2023/11/26 04:00:38;;;;;;;14.10;6.90;;;;;;;0.91;71.30;99117.69;107571;1252;97810;-60
2023/11/26 04:03:06;;;;;;;13.80;7.30;;;;;;;0.90;71.18;99122.00;107613;1252;97711;-60
2023/11/26 04:05:34;;;;;;;11.40;7.30;;;;;;;0.88;71.22;99119.17;107595;1253;112214;-60
2023/11/26 04:08:02;;;;;;;12.00;5.70;;;;;;;0.86;71.22;99113.49;107529;1252;109501;-60
2023/11/26 04:10:32;;;;;;;9.80;6.60;;;;;;;0.84;71.16;99111.54;107586;1252;107352;-60
2023/11/26 04:13:10;;;;;;;11.00;6.20;;;;;;;0.82;71.09;99114.86;107549;1253;97837;-61
2023/11/26 04:15:44;;;;;;;13.90;7.40;;;;;;;0.78;71.05;99113.54;107620;1251;97848;-60
2023/11/26 04:18:13;;;;;;;14.70;7.00;;;;;;;0.75;71.19;99107.45;107652;1254;110769;-61
2023/11/26 04:20:41;;;;;;;12.10;6.50;;;;;;;0.74;71.16;99108.23;107619;1251;109247;-61
2023/11/26 04:23:09;;;;;;;11.00;5.90;;;;;;;0.71;70.97;99112.98;107575;1253;108725;-61
2023/11/26 04:25:38;;;;;;;14.60;6.30;;;;;;;0.70;71.11;99116.94;107591;1253;97922;-60
2023/11/26 04:28:07;;;;;;;9.70;6.30;;;;;;;0.70;71.13;99117.89;107608;1253;97714;-61
2023/11/26 04:30:36;;;;;;;13.30;7.50;;;;;;;0.68;71.21;99114.62;107622;1251;111270;-62
2023/11/26 04:33:04;;;;;;;11.60;6.90;;;;;;;0.66;71.42;99117.15;107570;1253;109259;-61
2023/11/26 04:35:32;;;;;;;11.80;5.80;;;;;;;0.66;71.43;99116.41;107573;1251;107054;-60
2023/11/26 04:38:00;;;;;;;10.50;6.40;;;;;;;0.65;71.21;99122.45;107581;1253;97813;-60
2023/11/26 04:40:29;;;;;;;14.90;7.40;;;;;;;0.63;71.40;99118.20;107672;1252;98364;-59
2023/11/26 04:42:57;;;;;;;14.80;7.70;;;;;;;0.62;71.58;99120.52;107472;1254;111264;-60
2023/11/26 04:45:26;;;;;;;8.70;5.20;;;;;;;0.62;71.49;99121.46;107573;1253;110440;-59
2023/11/26 04:47:54;;;;;;;11.50;7.70;;;;;;;0.61;71.52;99120.98;107609;1251;109065;-58
2023/11/26 04:50:22;;;;;;;11.70;7.20;;;;;;;0.61;71.49;99122.58;107627;1255;98584;-59
2023/11/26 04:52:51;;;;;;;11.90;7.50;;;;;;;0.60;71.30;99117.67;107572;1252;97832;-59
2023/11/26 04:55:19;;;;;;;12.30;7.00;;;;;;;0.59;71.30;99117.25;107607;1253;111152;-61
2023/11/26 04:57:49;;;;;;;11.60;7.10;;;;;;;0.56;71.29;99117.98;107575;1253;109412;-59
2023/11/26 05:00:17;;;;;;;10.80;6.90;;;;;;;0.54;71.35;99120.95;107654;1255;108563;-60
2023/11/26 05:02:46;;;;;;;12.00;6.20;;;;;;;0.53;71.21;99120.00;107546;1253;97904;-60
2023/11/26 05:05:14;;;;;;;11.60;7.40;;;;;;;0.52;71.03;99121.14;107559;1252;97922;-59
2023/11/26 05:07:43;;;;;;;7.20;4.60;;;;;;;0.50;71.06;99121.79;107539;1253;111410;-63
2023/11/26 05:10:12;;;;;;;12.80;6.30;;;;;;;0.49;70.97;99116.59;107587;1253;109455;-59
2023/11/26 05:12:40;;;;;;;12.10;7.50;;;;;;;0.48;70.78;99112.94;107557;1255;107374;-59
2023/11/26 05:15:09;;;;;;;17.80;7.90;;;;;;;0.47;70.69;99119.15;107550;1252;97871;-59
2023/11/26 05:17:37;;;;;;;16.00;7.70;;;;;;;0.47;70.72;99122.52;107592;1254;97845;-60
2023/11/26 05:20:13;;;;;;;11.70;6.50;;;;;;;0.47;70.86;99121.30;107588;1251;111293;-61
2023/11/26 05:22:42;;;;;;;12.70;7.90;;;;;;;0.48;70.74;99122.32;107516;1253;109023;-59
2023/11/26 05:25:10;;;;;;;13.50;7.70;;;;;;;0.47;70.74;99122.70;107541;1253;107659;-60
2023/11/26 05:27:39;;;;;;;11.10;6.20;;;;;;;0.48;70.67;99122.63;107575;1253;97844;-61
2023/11/26 05:30:08;;;;;;;9.50;5.70;;;;;;;0.49;70.23;99125.96;107636;1253;97848;-60
2023/11/26 05:32:36;;;;;;;12.80;6.50;;;;;;;0.46;70.51;99122.80;107643;1251;110260;-59
2023/11/26 05:35:12;;;;;;;9.30;6.30;;;;;;;0.45;70.53;99120.17;107573;1253;109012;-59
2023/11/26 05:37:42;;;;;;;16.40;7.50;;;;;;;0.47;70.43;99119.73;107539;1253;108238;-59
2023/11/26 05:40:12;;;;;;;8.90;6.30;;;;;;;0.47;70.52;99119.71;107569;1252;97834;-59
2023/11/26 05:42:41;;;;;;;10.80;6.30;;;;;;;0.47;70.40;99123.57;107632;1251;97846;-60
2023/11/26 05:45:09;;;;;;;12.40;7.10;;;;;;;0.48;70.10;99122.98;107631;1251;112866;-60
2023/11/26 05:47:38;;;;;;;12.30;7.80;;;;;;;0.47;69.95;99126.92;107626;1253;108093;-59
2023/11/26 05:50:07;;;;;;;19.30;6.60;;;;;;;0.48;69.92;99126.00;107608;1253;105371;-60
2023/11/26 05:52:36;;;;;;;10.10;6.80;;;;;;;0.47;69.54;99122.56;107602;1252;97829;-61
2023/11/26 05:55:06;;;;;;;8.70;6.00;;;;;;;0.47;69.29;99119.91;107608;1253;97872;-60
2023/11/26 05:57:34;;;;;;;12.40;7.40;;;;;;;0.45;69.35;99122.69;107614;1253;111494;-61
2023/11/26 06:00:04;;;;;;;10.90;7.20;;;;;;;0.47;69.34;99121.81;107620;1251;108885;-60
2023/11/26 06:02:38;;;;;;;11.80;6.60;;;;;;;0.49;69.17;99122.54;107578;1252;108430;-60
2023/11/26 06:05:08;;;;;;;14.90;8.70;;;;;;;0.50;68.94;99116.32;107546;1253;97838;-61
2023/11/26 06:07:36;;;;;;;8.90;5.10;;;;;;;0.47;68.99;99113.70;107529;1252;98368;-59
2023/11/26 06:10:05;;;;;;;11.70;7.90;;;;;;;0.49;69.09;99109.84;107568;1251;111037;-59
2023/11/26 06:12:33;;;;;;;15.30;8.20;;;;;;;0.51;68.92;99106.39;107550;1253;108457;-60
2023/11/26 06:15:02;;;;;;;11.60;7.50;;;;;;;0.52;68.77;99095.02;107522;1253;108230;-60
2023/11/26 06:17:31;;;;;;;11.40;7.40;;;;;;;0.51;68.72;99091.36;107589;1251;97873;-59
2023/11/26 06:19:59;;;;;;;13.60;8.20;;;;;;;0.51;68.83;99091.36;107572;1255;98229;-60
2023/11/26 06:22:28;;;;;;;12.30;7.00;;;;;;;0.53;68.77;99087.85;107537;1253;111281;-60
2023/11/26 06:24:57;;;;;;;12.50;8.00;;;;;;;0.56;68.63;99088.33;107563;1253;107742;-60
2023/11/26 06:27:25;;;;;;;21.80;11.10;;;;;;;0.58;68.58;99082.22;107504;1255;108531;-60
2023/11/26 06:29:54;;;;;;;14.50;9.40;;;;;;;0.59;68.61;99084.55;107575;1253;97880;-60
2023/11/26 06:32:23;;;;;;;9.40;6.30;;;;;;;0.61;68.56;99086.55;107580;1252;97837;-60
2023/11/26 06:34:51;;;;;;;14.30;7.80;;;;;;;0.62;68.94;99084.19;107572;1253;110391;-60
2023/11/26 06:37:19;;;;;;;11.60;6.60;;;;;;;0.63;68.95;99090.33;107533;1253;109403;-60
2023/11/26 06:39:47;;;;;;;9.40;6.20;;;;;;;0.65;68.89;99091.25;107507;1253;107294;-60
2023/11/26 06:42:17;;;;;;;10.90;6.90;;;;;;;0.64;68.88;99093.24;107545;1253;97923;-62
2023/11/26 06:44:47;;;;;;;14.90;7.00;;;;;;;0.64;69.12;99092.73;107564;1251;98381;-62
2023/11/26 06:47:16;;;;;;;11.30;6.80;;;;;;;0.62;69.00;99098.29;107573;1251;111519;-61
2023/11/26 06:49:45;;;;;;;10.30;6.60;;;;;;;0.63;69.27;99110.07;107607;1251;109676;-60
2023/11/26 06:52:13;;;;;;;10.50;6.00;;;;;;;0.65;69.51;99114.91;107579;1253;107525;-60
2023/11/26 06:54:42;;;;;;;10.40;5.90;;;;;;;0.66;69.96;99111.27;107520;1252;97920;-61
2023/11/26 06:57:10;;;;;;;12.30;6.00;;;;;;;0.66;70.16;99112.73;107621;1254;99100;-60
2023/11/26 06:59:39;;;;;;;15.30;7.90;;;;;;;0.66;70.53;99108.48;107665;1251;109632;-60
2023/11/26 07:02:09;;;;;;;13.00;7.30;;;;;;;0.65;71.10;99106.55;107597;1254;109955;-59
2023/11/26 07:04:38;;;;;;;12.00;7.10;;;;;;;0.62;71.83;99094.05;107581;1253;108334;-60
2023/11/26 07:07:06;;;;;;;10.00;5.90;;;;;;;0.58;72.43;99085.73;107619;1251;97820;-60
2023/11/26 07:09:35;;;;;;;21.50;7.50;;;;;;;0.51;72.92;99084.33;107583;1253;97723;-60
2023/11/26 07:12:04;;;;;;;18.60;11.80;;;;;;;0.45;73.98;99079.29;107615;1251;112053;-60
2023/11/26 07:14:32;;;;;;;21.70;11.00;;;;;;;0.40;74.82;99078.07;107587;1253;108679;-61
2023/11/26 07:17:00;;;;;;;43.40;25.30;;;;;;;0.35;75.36;99081.76;107607;1252;107045;-58
2023/11/26 07:19:28;;;;;;;31.50;18.60;;;;;;;0.30;75.74;99086.91;107548;1251;97861;-60
2023/11/26 07:21:58;;;;;;;13.10;7.50;;;;;;;0.30;76.37;99088.33;107522;1252;97708;-60
2023/11/26 07:24:26;;;;;;;12.00;7.10;;;;;;;0.25;76.39;99095.88;107609;1253;110417;-60
2023/11/26 07:26:55;;;;;;;9.80;6.00;;;;;;;0.24;76.85;99104.98;107583;1253;109706;-60
2023/11/26 07:29:23;;;;;;;9.20;5.60;;;;;;;0.19;77.42;99106.70;107503;1253;109374;-59
2023/11/26 07:31:52;;;;;;;12.50;6.30;;;;;;;0.14;77.54;99113.27;107517;1253;97904;-60
2023/11/26 07:34:21;;;;;;;15.40;7.20;;;;;;;0.07;77.50;99116.24;107573;1253;97802;-60
2023/11/26 07:36:52;;;;;;;11.40;6.10;;;;;;;0.04;77.82;99121.36;107500;1253;112961;-60
2023/11/26 07:39:20;;;;;;;10.40;6.30;;;;;;;-0.02;77.78;99129.37;107522;1253;108858;-60
2023/11/26 07:41:49;;;;;;;9.10;6.50;;;;;;;-0.05;78.26;99134.48;107559;1251;108748;-59
2023/11/26 07:44:18;;;;;;;12.40;6.30;;;;;;;-0.04;78.22;99133.06;107598;1251;98471;-61
2023/11/26 07:46:47;;;;;;;12.90;5.70;;;;;;;-0.04;77.98;99133.16;107654;1255;97850;-60
2023/11/26 07:49:15;;;;;;;11.00;5.20;;;;;;;-0.03;77.91;99131.17;107630;1252;111076;-58
2023/11/26 07:51:44;;;;;;;13.00;5.60;;;;;;;-0.03;77.88;99130.30;107542;1251;109700;-60
2023/11/26 07:54:13;;;;;;;7.40;5.50;;;;;;;-0.03;77.34;99114.13;107524;1251;107995;-60
2023/11/26 07:56:53;;;;;;;8.20;5.20;;;;;;;-0.04;76.92;99106.58;107572;1253;97838;-62
2023/11/26 07:59:21;;;;;;;8.50;3.80;;;;;;;-0.07;76.76;99104.18;107532;1253;99573;-60
2023/11/26 08:01:50;;;;;;;7.90;4.70;;;;;;;-0.11;76.64;99098.63;107563;1251;111411;-59
2023/11/26 08:04:19;;;;;;;8.90;5.00;;;;;;;-0.15;77.08;99093.11;107421;1253;107458;-60
2023/11/26 08:06:49;;;;;;;8.60;5.40;;;;;;;-0.17;77.11;99095.84;107461;1253;105721;-61
2023/11/26 08:09:17;;;;;;;7.00;4.10;;;;;;;-0.17;76.74;99097.99;107487;1255;97944;-61
2023/11/26 08:11:47;;;;;;;9.70;5.80;;;;;;;-0.18;76.38;99094.75;107483;1253;97734;-59
2023/11/26 08:14:15;;;;;;;9.50;5.10;;;;;;;-0.22;76.76;99095.68;107536;1254;111761;-65
2023/11/26 08:16:46;;;;;;;3.60;3.00;;;;;;;-0.22;76.62;99094.68;107539;1253;108805;-60
2023/11/26 08:19:18;;;;;;;6.90;4.00;;;;;;;-0.21;76.98;99079.05;107464;1253;107673;-58
2023/11/26 08:21:47;;;;;;;6.00;4.40;;;;;;;-0.22;76.73;99079.50;107421;1253;97829;-60
2023/11/26 08:24:19;;;;;;;5.90;4.30;;;;;;;-0.22;76.59;99086.86;107461;1252;98367;-59
2023/11/26 08:26:47;;;;;;;7.00;4.60;;;;;;;-0.23;76.42;99095.77;107466;1254;111222;-61
2023/11/26 08:29:19;;;;;;;5.10;3.20;;;;;;;-0.24;75.93;99088.08;107495;1254;109898;-61
2023/11/26 08:31:48;;;;;;;7.80;3.90;;;;;;;-0.22;75.68;99092.70;107444;1255;108108;-60
2023/11/26 08:34:17;;;;;;;6.90;4.50;;;;;;;-0.19;74.86;99088.30;107531;1256;97939;-60
2023/11/26 08:36:46;;;;;;;4.50;3.00;;;;;;;-0.15;74.45;99081.86;107476;1253;98470;-61
2023/11/26 08:39:19;;;;;;;7.10;4.00;;;;;;;-0.13;73.86;99071.81;107533;1253;113331;-61
2023/11/26 08:41:50;;;;;;;9.80;5.60;;;;;;;-0.10;74.04;99066.20;107518;1253;109762;-62
2023/11/26 08:44:18;;;;;;;7.50;4.70;;;;;;;-0.05;73.96;99056.84;107465;1253;107834;-59
2023/11/26 08:46:47;;;;;;;7.30;4.20;;;;;;;-0.04;73.41;99056.39;107470;1252;97858;-59
2023/11/26 08:49:20;;;;;;;5.10;3.70;;;;;;;-0.06;73.08;99058.84;107495;1253;97921;-60
2023/11/26 08:51:49;;;;;;;6.40;3.50;;;;;;;-0.06;73.20;99043.48;107438;1253;112165;-61
2023/11/26 08:54:18;;;;;;;5.90;3.00;;;;;;;-0.04;72.54;99042.08;107596;1255;108560;-61
2023/11/26 08:56:47;;;;;;;11.10;4.40;;;;;;;-0.06;72.62;99055.45;107518;1253;107978;-63
2023/11/26 08:59:15;;;;;;;5.50;3.50;;;;;;;-0.06;72.80;99061.64;107577;1253;97797;-59
2023/11/26 09:01:44;;;;;;;10.90;3.10;;;;;;;-0.02;72.61;99062.23;107525;1253;98390;-60
2023/11/26 09:04:12;;;;;;;7.50;4.50;;;;;;;-0.04;72.79;99056.92;107442;1253;113195;-59
2023/11/26 09:06:40;;;;;;;4.30;2.70;;;;;;;-0.05;73.51;99051.54;107458;1254;110757;-61
2023/11/26 09:09:10;;;;;;;8.50;3.30;;;;;;;-0.06;73.46;99047.17;107424;1253;107534;-61
2023/11/26 09:11:38;;;;;;;6.20;4.20;;;;;;;-0.09;73.90;99047.38;107445;1253;97847;-60
2023/11/26 09:14:06;;;;;;;6.40;3.60;;;;;;;-0.07;74.45;99049.39;107432;1254;97707;-59
2023/11/26 09:16:36;;;;;;;7.10;3.90;;;;;;;-0.08;74.46;99051.23;107503;1254;111268;-59
2023/11/26 09:19:05;;;;;;;6.10;4.60;;;;;;;-0.08;74.77;99055.60;107460;1253;108688;-58
2023/11/26 09:21:33;;;;;;;13.20;5.50;;;;;;;-0.07;75.25;99054.63;107476;1253;108812;-60
2023/11/26 09:24:01;;;;;;;7.20;4.80;;;;;;;-0.03;75.61;99057.54;107492;1254;97836;-60
2023/11/26 09:26:30;;;;;;;10.50;5.10;;;;;;;-0.00;75.50;99059.29;107529;1255;98347;-60
2023/11/26 09:28:58;;;;;;;5.60;4.10;;;;;;;0.02;75.40;99063.89;107443;1253;110914;-60
2023/11/26 09:31:27;;;;;;;6.70;4.30;;;;;;;0.05;75.17;99053.77;107454;1253;108898;-61
2023/11/26 09:33:55;;;;;;;8.50;3.90;;;;;;;0.06;74.92;99047.53;107478;1254;108713;-59
2023/11/26 09:36:24;;;;;;;5.20;4.10;;;;;;;0.08;74.48;99044.08;107526;1254;97826;-63
2023/11/26 09:38:52;;;;;;;10.40;3.40;;;;;;;0.07;74.73;99043.42;107530;1251;98377;-59
2023/11/26 09:41:21;;;;;;;4.10;3.70;;;;;;;0.03;74.83;99041.79;107457;1253;111772;-60
2023/11/26 09:43:49;;;;;;;6.60;3.90;;;;;;;-0.02;75.44;99042.80;107530;1253;109105;-60
2023/11/26 09:46:22;;;;;;;6.80;3.70;;;;;;;-0.03;75.54;99040.44;107474;1256;107528;-60
2023/11/26 09:48:50;;;;;;;5.90;3.70;;;;;;;-0.01;75.62;99046.83;107522;1255;98362;-60
2023/11/26 09:51:26;;;;;;;9.80;4.80;;;;;;;0.01;75.13;99050.05;107456;1254;98339;-59
2023/11/26 09:53:54;;;;;;;6.80;4.20;;;;;;;0.00;75.02;99058.02;107529;1254;111299;-60
2023/11/26 09:56:23;;;;;;;4.90;3.10;;;;;;;0.04;74.70;99067.95;107545;1250;109838;-61
2023/11/26 09:58:51;;;;;;;8.00;3.70;;;;;;;0.04;74.03;99079.09;107519;1254;106518;-59
2023/11/26 10:01:19;;;;;;;7.00;3.40;;;;;;;0.03;74.08;99091.89;107475;1256;98071;-60
2023/11/26 10:04:04;;;;;;;7.20;2.60;;;;;;;0.05;73.89;99097.86;107489;1254;97919;-61
2023/11/26 10:06:33;;;;;;;7.60;3.20;;;;;;;0.05;72.90;99096.62;107552;1251;112395;-61
2023/11/26 10:09:18;;;;;;;5.00;3.20;;;;;;;0.03;72.92;99098.02;107543;1254;108408;-58
2023/11/26 10:11:47;;;;;;;8.10;3.30;;;;;;;0.05;72.68;99098.75;107472;1255;108576;-60
2023/11/26 10:14:18;;;;;;;5.60;3.00;;;;;;;0.05;72.38;99103.14;107083;1256;527772;-60
2023/11/26 10:16:47;;;;;;;5.60;3.10;;;;;;;0.07;71.82;99099.45;107550;1251;97711;-60
2023/11/26 10:19:27;;;;;;;7.80;2.90;;;;;;;0.14;71.96;99104.23;107493;1256;110251;-62
2023/11/26 10:21:59;;;;;;;6.00;3.80;;;;;;;0.20;71.47;99111.75;107512;1253;109411;-61
2023/11/26 10:24:29;;;;;;;10.30;3.90;;;;;;;0.25;71.57;99105.97;107466;1255;108266;-60
2023/11/26 10:27:00;;;;;;;9.20;4.00;;;;;;;0.28;71.88;99104.11;107470;1256;97845;-59
2023/11/26 10:29:30;;;;;;;8.70;4.70;;;;;;;0.30;72.27;99107.02;107526;1251;97957;-60
2023/11/26 10:32:01;;;;;;;9.30;4.90;;;;;;;0.24;72.78;99100.92;107460;1254;111225;-61
2023/11/26 10:34:32;;;;;;;10.30;5.80;;;;;;;0.23;73.68;99101.02;107458;1253;108747;-60
2023/11/26 10:37:02;;;;;;;11.20;6.20;;;;;;;0.22;74.26;99099.12;107499;1256;107832;-61
2023/11/26 10:39:30;;;;;;;12.30;5.80;;;;;;;0.23;74.76;99098.52;107549;1255;97944;-61
2023/11/26 10:42:00;;;;;;;11.30;6.80;;;;;;;0.23;75.31;99084.90;107513;1251;97730;-61
2023/11/26 10:44:30;;;;;;;10.00;6.20;;;;;;;0.25;75.51;99075.80;107390;1254;111702;-61
2023/11/26 10:47:01;;;;;;;8.50;6.00;;;;;;;0.24;75.40;99076.06;107457;1255;109628;-61
2023/11/26 10:49:37;;;;;;;11.40;6.10;;;;;;;0.25;75.23;99066.83;107451;1255;108041;-61
2023/11/26 10:52:15;;;;;;;14.80;6.50;;;;;;;0.25;74.52;99064.54;107317;1259;97871;-59
2023/11/26 10:54:56;;;;;;;8.20;4.70;;;;;;;0.27;74.16;99059.09;107487;1254;98363;-59
2023/11/26 10:57:37;;;;;;;12.50;6.80;;;;;;;0.29;73.45;99061.54;107503;1256;112434;-59
2023/11/26 11:00:29;;;;;;;10.70;6.30;;;;;;;0.30;73.02;99063.63;107500;1255;110237;-60
2023/11/26 11:03:02;;;;;;;14.90;6.40;;;;;;;0.31;72.88;99063.20;107487;1254;108536;-59
2023/11/26 11:05:32;;;;;;;7.90;4.90;;;;;;;0.35;72.80;99068.56;107481;1253;97871;-62
2023/11/26 11:08:01;;;;;;;9.00;4.20;;;;;;;0.39;72.50;99075.52;107581;1255;98259;-59
2023/11/26 11:10:41;;;;;;;11.20;5.10;;;;;;;0.40;72.49;99076.48;107570;1255;111166;-60
2023/11/26 11:13:15;;;;;;;8.80;4.80;;;;;;;0.42;72.29;99077.00;107627;1254;106865;-61
2023/11/26 11:15:45;;;;;;;12.80;6.00;;;;;;;0.44;72.72;99075.96;107608;1254;107741;-60
2023/11/26 11:18:30;;;;;;;13.60;4.70;;;;;;;0.43;72.89;99079.06;107625;1254;97854;-60
2023/11/26 11:21:09;;;;;;;9.20;5.20;;;;;;;0.42;72.87;99074.73;107554;1254;98399;-60
2023/11/26 11:23:44;;;;;;;8.70;5.00;;;;;;;0.39;73.00;99077.31;107595;1255;112013;-61
2023/11/26 11:26:15;;;;;;;8.50;3.90;;;;;;;0.38;73.13;99078.52;107629;1251;108706;-61
2023/11/26 11:28:49;;;;;;;10.70;4.30;;;;;;;0.36;72.88;99080.31;107664;1257;106719;-61
2023/11/26 11:31:19;;;;;;;6.50;3.60;;;;;;;0.35;72.69;99075.80;107595;1256;97827;-61
2023/11/26 11:34:00;;;;;;;6.90;3.60;;;;;;;0.35;72.91;99072.79;107600;1251;97929;-60
2023/11/26 11:36:41;;;;;;;9.40;5.00;;;;;;;0.33;72.80;99069.26;107580;1253;111640;-60